LIT weather

Bill & Hillary Clinton National Airport/Adams Field
Little Rock, Arkansas, United States

Public forecast

Using degrees Fahrenheit for public forecast. Weather courtesy of forecast.io.

METAR (pilot weather report)

Retrieved 2019/05/21 09:57 UTC (9 minutes ago):

KLIT 210957Z 12004KT 10SM BKN025 OVC250 22/21 A2977

TAF (pilot weather forecast)

Retrieved 2019/05/21 06:30 UTC (4 hours ago):

TAF KLIT 210528Z 2106/2206 14008KT P6SM SCT060 OVC250 FM211400 16008G16KT P6SM OVC025 FM211800 17015G25KT P6SM VCTS BKN050CB PROB30 2123/2203 3SM TSRA BR OVC025CB FM220300 18009KT P6SM SCT050 BKN100